Time;durP1;ratioP1;P1;durP2;ratioP2;P2;SDS_P1;SDS_P2;PMS_P1;PMS_P2;Temp;Humidity;BMP_temperature;BMP_pressure;BME280_temperature;BME280_humidity;BME280_pressure;Samples;Min_cycle;Max_cycle;Signal;HPM_P1;HPM_P2
2022/03/12 00:02:12;;;;;;;;;0.00;0.00;19.80;92.40;;;;;;5014146;28;9198;-47
2022/03/12 00:04:45;;;;;;;;;0.00;0.00;19.80;91.80;;;;;;5013205;28;9084;-46
2022/03/12 00:07:16;;;;;;;;;0.00;0.00;19.80;92.90;;;;;;5007433;28;9257;-49
2022/03/12 00:09:46;;;;;;;;;0.00;0.00;19.80;93.30;;;;;;5013060;28;9233;-50
2022/03/12 00:12:19;;;;;;;;;0.00;0.00;19.80;93.10;;;;;;5013270;28;9183;-49
2022/03/12 00:14:49;;;;;;;;;0.00;0.00;19.80;92.80;;;;;;5014807;28;9269;-47
2022/03/12 00:17:21;;;;;;;;;0.00;0.00;19.80;93.70;;;;;;5008988;28;9084;-48
2022/03/12 00:19:54;;;;;;;;;0.00;0.00;19.80;95.20;;;;;;5014313;28;9243;-49
2022/03/12 00:22:25;;;;;;;;;0.00;0.00;19.80;97.10;;;;;;5014185;28;9328;-48
2022/03/12 00:24:57;;;;;;;;;1.00;1.00;19.80;98.20;;;;;;5010873;28;10086;-49
2022/03/12 00:27:27;;;;;;;;;1.00;1.00;19.80;99.90;;;;;;5023408;28;9337;-48
2022/03/12 00:29:57;;;;;;;;;1.00;1.00;19.80;99.90;;;;;;5016408;28;9382;-48
2022/03/12 00:32:27;;;;;;;;;1.00;1.00;19.80;99.90;;;;;;5015021;28;9590;-46
2022/03/12 00:34:58;;;;;;;;;0.00;0.00;19.80;99.90;;;;;;5010223;28;9396;-49
2022/03/12 00:37:29;;;;;;;;;1.00;1.00;19.80;99.90;;;;;;5012917;28;9326;-51
2022/03/12 00:40:00;;;;;;;;;1.00;1.00;19.80;99.90;;;;;;5009074;28;9943;-46
2022/03/12 00:42:31;;;;;;;;;0.00;0.00;19.80;99.90;;;;;;5006743;28;9415;-48
2022/03/12 00:45:01;;;;;;;;;1.00;0.00;19.80;99.90;;;;;;5013481;28;9662;-48
2022/03/12 00:47:33;;;;;;;;;1.00;1.00;19.80;99.90;;;;;;5007538;28;9415;-49
2022/03/12 00:50:05;;;;;;;;;1.00;1.00;19.80;99.90;;;;;;5013295;28;9451;-49
2022/03/12 00:52:36;;;;;;;;;1.00;1.00;19.80;99.90;;;;;;5011380;28;9471;-49
2022/03/12 00:55:07;;;;;;;;;0.67;0.67;19.80;99.90;;;;;;5015005;28;10203;-50
2022/03/12 00:57:37;;;;;;;;;0.00;0.00;19.70;99.90;;;;;;5009694;28;9206;-49
2022/03/12 01:00:14;;;;;;;;;0.00;0.00;19.60;99.90;;;;;;5011601;28;9490;-47
2022/03/12 01:02:45;;;;;;;;;2.00;1.00;19.60;99.90;;;;;;5006919;28;9478;-49
2022/03/12 01:05:19;;;;;;;;;0.00;0.00;19.70;99.90;;;;;;5013576;28;9579;-48
2022/03/12 01:07:50;;;;;;;;;0.00;0.00;19.70;99.90;;;;;;5009705;28;9346;-49
2022/03/12 01:10:21;;;;;;;;;0.00;0.00;19.60;99.90;;;;;;5010479;28;9544;-48
2022/03/12 01:12:52;;;;;;;;;0.00;0.00;19.60;99.90;;;;;;5009487;28;9491;-48
2022/03/12 01:15:24;;;;;;;;;0.00;0.00;19.60;99.90;;;;;;5008259;28;9481;-47
2022/03/12 01:17:55;;;;;;;;;0.00;0.00;19.50;99.90;;;;;;5005064;28;9770;-51
2022/03/12 01:20:26;;;;;;;;;0.00;0.00;19.50;99.90;;;;;;5009691;28;9523;-47
2022/03/12 01:22:57;;;;;;;;;0.00;0.00;19.40;99.90;;;;;;5017991;28;9743;-51
2022/03/12 01:25:29;;;;;;;;;2.00;0.00;19.40;99.90;;;;;;5009930;28;9778;-48
2022/03/12 01:28:00;;;;;;;;;0.00;0.00;19.30;99.90;;;;;;5008775;28;9515;-48
2022/03/12 01:30:32;;;;;;;;;0.00;0.00;19.40;99.90;;;;;;5011100;28;9573;-45
2022/03/12 01:33:04;;;;;;;;;1.00;1.00;19.30;99.90;;;;;;5010114;28;9464;-49
2022/03/12 01:35:36;;;;;;;;;1.00;1.00;19.30;99.90;;;;;;5011558;28;9501;-49
2022/03/12 01:38:07;;;;;;;;;0.00;0.00;19.30;99.90;;;;;;5013552;28;9671;-49
2022/03/12 01:40:37;;;;;;;;;0.00;0.00;19.20;99.90;;;;;;5012705;28;10316;-48
2022/03/12 01:43:08;;;;;;;;;0.00;0.00;19.20;99.90;;;;;;5017402;28;10213;-50
2022/03/12 01:45:39;;;;;;;;;0.00;0.00;19.10;99.90;;;;;;5013512;28;9566;-50
2022/03/12 01:48:09;;;;;;;;;0.00;0.00;19.10;99.90;;;;;;5013657;28;9708;-47
2022/03/12 01:50:40;;;;;;;;;0.00;0.00;19.10;99.90;;;;;;5011237;28;9641;-50
2022/03/12 01:53:12;;;;;;;;;0.00;0.00;19.00;99.90;;;;;;5013915;28;9675;-49
2022/03/12 01:55:43;;;;;;;;;0.00;0.00;19.00;99.90;;;;;;5012563;28;9626;-48
2022/03/12 01:58:14;;;;;;;;;0.00;0.00;19.00;99.90;;;;;;5011212;28;9639;-47
2022/03/12 02:00:49;;;;;;;;;0.00;0.00;18.90;99.90;;;;;;5012083;28;10658;-46
2022/03/12 02:03:26;;;;;;;;;0.00;0.00;18.90;99.90;;;;;;5010154;28;9784;-48
2022/03/12 02:05:57;;;;;;;;;0.00;0.00;18.80;99.90;;;;;;5008376;28;9801;-49
2022/03/12 02:08:28;;;;;;;;;0.00;0.00;18.80;99.90;;;;;;5010624;28;9820;-47
2022/03/12 02:11:01;;;;;;;;;0.75;0.00;18.80;99.90;;;;;;5015935;28;9860;-51
2022/03/12 02:13:34;;;;;;;;;0.75;0.75;18.80;99.90;;;;;;5012277;28;9910;-50
2022/03/12 02:16:08;;;;;;;;;2.00;0.50;18.70;99.90;;;;;;5013294;28;10101;-50
2022/03/12 02:18:39;;;;;;;;;0.25;0.25;18.70;99.90;;;;;;5012693;28;10344;-50
2022/03/12 02:21:10;;;;;;;;;0.75;0.75;18.70;99.90;;;;;;5008771;28;10088;-46
2022/03/12 02:23:48;;;;;;;;;0.75;0.75;18.70;99.90;;;;;;5008066;28;10326;-46
2022/03/12 02:26:19;;;;;;;;;3.50;3.50;18.70;99.90;;;;;;5008478;28;10376;-48
2022/03/12 02:28:50;;;;;;;;;4.00;4.00;18.70;99.90;;;;;;5002043;28;10609;-46
2022/03/12 02:31:25;;;;;;;;;5.75;5.75;18.60;99.90;;;;;;5006371;28;10572;-47
2022/03/12 02:34:04;;;;;;;;;6.75;6.75;18.60;99.90;;;;;;5011806;28;11684;-44
2022/03/12 02:36:34;;;;;;;;;12.00;12.00;18.60;99.90;;;;;;5011788;28;10946;-46
2022/03/12 02:39:07;;;;;;;;;18.75;18.75;18.50;99.90;;;;;;5008368;28;10935;-45
2022/03/12 02:41:37;;;;;;;;;19.75;19.75;18.40;99.90;;;;;;5006677;28;11194;-48
2022/03/12 02:44:10;;;;;;;;;18.75;18.00;18.40;99.90;;;;;;5007032;28;11190;-47
2022/03/12 02:46:44;;;;;;;;;4.25;4.25;18.30;99.90;;;;;;5007329;28;11531;-49
2022/03/12 02:49:16;;;;;;;;;2.75;2.75;18.20;99.90;;;;;;5012385;28;11512;-46
2022/03/12 02:51:48;;;;;;;;;4.00;4.00;18.20;99.90;;;;;;5010231;28;10777;-48
2022/03/12 02:54:18;;;;;;;;;3.25;3.25;18.20;99.90;;;;;;5005349;28;10943;-46
2022/03/12 02:56:49;;;;;;;;;2.75;2.75;18.30;99.90;;;;;;5010294;28;11324;-48
2022/03/12 02:59:20;;;;;;;;;4.00;3.75;18.20;99.90;;;;;;5012831;28;10778;-49
2022/03/12 03:01:50;;;;;;;;;3.25;3.25;18.20;99.90;;;;;;5010501;28;10676;-47
2022/03/12 03:04:22;;;;;;;;;0.75;0.75;18.10;99.90;;;;;;5010415;28;10931;-48
2022/03/12 03:06:53;;;;;;;;;1.25;0.25;18.10;99.90;;;;;;5007246;28;10852;-48
2022/03/12 03:09:23;;;;;;;;;0.00;0.00;18.00;99.90;;;;;;5011806;28;10458;-49
2022/03/12 03:11:55;;;;;;;;;1.00;0.00;18.00;99.90;;;;;;5012258;28;10082;-48
2022/03/12 03:14:27;;;;;;;;;2.00;0.75;17.90;99.90;;;;;;5011398;28;10889;-48
2022/03/12 03:17:01;;;;;;;;;0.50;0.50;17.90;99.90;;;;;;5005581;28;10321;-51
2022/03/12 03:19:34;;;;;;;;;0.00;0.00;17.90;99.90;;;;;;5012812;28;10552;-44
2022/03/12 03:22:06;;;;;;;;;1.00;1.00;17.90;99.90;;;;;;5008198;28;10410;-49
2022/03/12 03:24:37;;;;;;;;;0.75;0.75;17.90;99.90;;;;;;5006718;28;10410;-47
2022/03/12 03:27:11;;;;;;;;;0.00;0.00;17.90;99.90;;;;;;5006939;28;10617;-50
2022/03/12 03:29:42;;;;;;;;;0.00;0.00;17.80;99.90;;;;;;5005509;28;10707;-47
2022/03/12 03:32:14;;;;;;;;;1.00;1.00;17.80;99.90;;;;;;5001078;28;10875;-48
2022/03/12 03:34:44;;;;;;;;;0.50;0.50;17.70;99.90;;;;;;5005156;28;10878;-47
2022/03/12 03:37:16;;;;;;;;;0.25;0.25;17.70;99.90;;;;;;5005019;28;10775;-44
2022/03/12 03:39:47;;;;;;;;;0.00;0.00;17.70;99.90;;;;;;5008781;28;10933;-48
2022/03/12 03:42:21;;;;;;;;;0.00;0.00;17.70;99.90;;;;;;5008629;28;10847;-49
2022/03/12 03:44:57;;;;;;;;;0.00;0.00;17.60;99.90;;;;;;5015440;28;11215;-46
2022/03/12 03:47:28;;;;;;;;;1.00;1.00;17.60;99.90;;;;;;5006187;28;10895;-50
2022/03/12 03:49:59;;;;;;;;;1.75;1.75;17.60;99.90;;;;;;5008177;28;11032;-48
2022/03/12 03:52:30;;;;;;;;;1.25;1.25;17.60;99.90;;;;;;5007152;28;11105;-46
2022/03/12 03:55:01;;;;;;;;;1.75;1.75;17.50;99.90;;;;;;5006571;28;11158;-44
2022/03/12 03:57:32;;;;;;;;;2.50;2.50;17.50;99.90;;;;;;5007056;28;11474;-49
2022/03/12 04:00:05;;;;;;;;;3.25;3.25;17.50;99.90;;;;;;5007382;28;11516;-46
2022/03/12 04:02:39;;;;;;;;;3.50;3.50;17.40;99.90;;;;;;5019050;28;11965;-47
2022/03/12 04:05:09;;;;;;;;;4.75;4.75;17.40;99.90;;;;;;5009584;28;11359;-48
2022/03/12 04:07:41;;;;;;;;;10.00;9.75;17.40;99.90;;;;;;5010776;28;11597;-46
2022/03/12 04:10:11;;;;;;;;;12.25;12.25;17.30;99.90;;;;;;5009228;28;11534;-47
2022/03/12 04:12:43;;;;;;;;;8.25;8.25;17.30;99.90;;;;;;5008873;28;11469;-46
2022/03/12 04:15:15;;;;;;;;;6.75;6.75;17.20;99.90;;;;;;5009941;28;11694;-47
2022/03/12 04:17:50;;;;;;;;;4.50;3.00;17.20;99.90;;;;;;5012598;28;11679;-45
2022/03/12 04:20:25;;;;;;;;;1.00;1.00;17.20;99.90;;;;;;5005362;28;12640;-47
2022/03/12 04:22:55;;;;;;;;;0.50;0.50;17.20;99.90;;;;;;5014838;28;10778;-46
2022/03/12 04:25:31;;;;;;;;;2.00;1.00;17.10;99.90;;;;;;5007576;28;10743;-48
2022/03/12 04:28:02;;;;;;;;;1.00;1.00;17.10;99.90;;;;;;5008607;28;10815;-45
2022/03/12 04:30:32;;;;;;;;;0.00;0.00;17.10;99.90;;;;;;5010850;28;11469;-47
2022/03/12 04:33:09;;;;;;;;;1.00;1.00;17.00;99.90;;;;;;5013312;28;10601;-46
2022/03/12 04:35:39;;;;;;;;;0.00;0.00;17.00;99.90;;;;;;5013513;28;10713;-45
2022/03/12 04:38:11;;;;;;;;;1.00;1.00;16.90;99.90;;;;;;5014248;28;10544;-47
2022/03/12 04:40:44;;;;;;;;;0.00;0.00;16.80;99.90;;;;;;5013047;28;10690;-45
2022/03/12 04:43:24;;;;;;;;;0.25;0.25;16.80;99.90;;;;;;5014775;28;10867;-49
2022/03/12 04:45:58;;;;;;;;;0.00;0.00;16.80;99.90;;;;;;5027695;28;10826;-46
2022/03/12 04:48:30;;;;;;;;;0.00;0.00;16.70;99.90;;;;;;4997425;28;10786;-46
2022/03/12 04:51:02;;;;;;;;;1.00;1.00;16.70;99.90;;;;;;5010032;28;10785;-48
2022/03/12 04:53:34;;;;;;;;;1.50;1.50;16.60;99.90;;;;;;5011849;28;10911;-47
2022/03/12 04:56:06;;;;;;;;;1.00;1.00;16.50;99.90;;;;;;5008577;28;10903;-49
2022/03/12 04:58:37;;;;;;;;;1.00;1.00;16.50;99.90;;;;;;5013840;28;10856;-47
2022/03/12 05:01:08;;;;;;;;;1.00;1.00;16.50;99.90;;;;;;5002365;28;10935;-46
2022/03/12 05:03:45;;;;;;;;;2.00;2.00;16.40;99.90;;;;;;5013528;28;10934;-47
2022/03/12 05:06:19;;;;;;;;;1.00;1.00;16.40;99.90;;;;;;5013381;28;11073;-45
2022/03/12 05:08:50;;;;;;;;;1.00;1.00;16.40;99.90;;;;;;5014493;28;11595;-47
2022/03/12 05:11:23;;;;;;;;;1.00;1.00;16.40;99.90;;;;;;5013811;28;10997;-44
2022/03/12 05:13:54;;;;;;;;;1.00;1.00;16.30;99.90;;;;;;5010630;28;11163;-49
2022/03/12 05:16:27;;;;;;;;;2.00;2.00;16.30;99.90;;;;;;5014207;28;11068;-47
2022/03/12 05:18:58;;;;;;;;;2.00;2.00;16.20;99.90;;;;;;5015806;28;12210;-46
2022/03/12 05:21:29;;;;;;;;;1.00;1.00;16.10;99.90;;;;;;5016693;28;11166;-46
2022/03/12 05:24:00;;;;;;;;;1.50;1.50;16.10;99.90;;;;;;5010364;28;11121;-47
2022/03/12 05:26:29;;;;;;;;;2.00;2.00;16.00;99.90;;;;;;5014222;28;11261;-48
2022/03/12 05:29:05;;;;;;;;;2.25;2.25;16.00;99.90;;;;;;5008110;28;12220;-49
2022/03/12 05:31:36;;;;;;;;;1.00;1.00;16.00;99.90;;;;;;5010435;28;11313;-45
2022/03/12 05:34:06;;;;;;;;;1.00;1.00;16.00;99.90;;;;;;5010381;28;11170;-46
2022/03/12 05:36:38;;;;;;;;;2.00;2.00;15.90;99.90;;;;;;5011614;28;11483;-49
2022/03/12 05:39:10;;;;;;;;;1.00;1.00;15.90;99.90;;;;;;5011107;28;11532;-49
2022/03/12 05:41:41;;;;;;;;;2.00;2.00;15.80;99.90;;;;;;5012463;28;11221;-48
2022/03/12 05:44:14;;;;;;;;;3.00;3.00;15.80;99.90;;;;;;5011740;28;12448;-50
2022/03/12 05:46:46;;;;;;;;;2.00;2.00;15.80;99.90;;;;;;5011495;28;11469;-44
2022/03/12 05:49:17;;;;;;;;;3.00;3.00;15.70;99.90;;;;;;5010447;28;11478;-49
2022/03/12 05:51:48;;;;;;;;;2.50;2.50;15.70;99.90;;;;;;5016328;28;11216;-49
2022/03/12 05:54:21;;;;;;;;;1.00;1.00;15.60;99.90;;;;;;5010979;28;11502;-45
2022/03/12 05:56:54;;;;;;;;;1.25;1.25;15.60;99.90;;;;;;5009505;28;12152;-48
2022/03/12 05:59:24;;;;;;;;;2.00;2.00;15.50;99.90;;;;;;5011504;28;11502;-49
2022/03/12 06:01:54;;;;;;;;;1.75;1.75;15.50;99.90;;;;;;5006175;28;11512;-49
2022/03/12 06:04:27;;;;;;;;;1.25;1.25;15.50;99.90;;;;;;5014918;28;11631;-47
2022/03/12 06:06:58;;;;;;;;;2.00;2.00;15.50;99.90;;;;;;5003226;28;12215;-48
2022/03/12 06:09:29;;;;;;;;;3.00;3.00;15.50;99.90;;;;;;5011242;28;11474;-47
2022/03/12 06:12:00;;;;;;;;;3.00;3.00;15.40;99.90;;;;;;5009546;28;11503;-47
2022/03/12 06:14:31;;;;;;;;;3.00;3.00;15.40;99.90;;;;;;5012680;28;11517;-46
2022/03/12 06:17:04;;;;;;;;;3.25;3.25;15.30;99.90;;;;;;5006801;28;11510;-46
2022/03/12 06:19:35;;;;;;;;;5.00;3.00;15.30;99.90;;;;;;5010792;28;11590;-46
2022/03/12 06:22:06;;;;;;;;;6.00;6.00;15.30;99.90;;;;;;5010898;28;11636;-48
2022/03/12 06:24:37;;;;;;;;;7.75;7.75;15.20;99.90;;;;;;5011041;28;12217;-47
2022/03/12 06:27:08;;;;;;;;;9.00;9.00;15.20;99.90;;;;;;5006532;28;11511;-46
2022/03/12 06:29:40;;;;;;;;;9.75;9.00;15.20;99.90;;;;;;5005153;28;11520;-49
2022/03/12 06:32:11;;;;;;;;;7.75;7.75;15.10;99.90;;;;;;5004618;28;11530;-48
2022/03/12 06:34:43;;;;;;;;;10.00;10.00;15.00;99.90;;;;;;5009139;28;11544;-47
2022/03/12 06:37:14;;;;;;;;;5.00;5.00;15.00;99.90;;;;;;5010016;28;11676;-48
2022/03/12 06:39:45;;;;;;;;;4.50;4.50;14.90;99.90;;;;;;5009967;28;11445;-46
2022/03/12 06:42:17;;;;;;;;;5.00;5.00;14.90;99.90;;;;;;5011039;28;12198;-49
2022/03/12 06:44:51;;;;;;;;;4.00;4.00;14.90;99.90;;;;;;5005728;28;11499;-49
2022/03/12 06:47:27;;;;;;;;;3.00;3.00;14.80;99.90;;;;;;5011512;28;12207;-45
2022/03/12 06:49:59;;;;;;;;;5.00;5.00;14.80;99.90;;;;;;5014883;28;11513;-46
2022/03/12 06:52:29;;;;;;;;;2.75;2.75;14.80;99.90;;;;;;5011687;28;12241;-48
2022/03/12 06:55:00;;;;;;;;;10.00;10.00;14.70;99.90;;;;;;5011017;28;11506;-44
2022/03/12 06:57:33;;;;;;;;;23.25;23.25;14.70;99.90;;;;;;5010434;28;11579;-45
2022/03/12 07:00:06;;;;;;;;;20.00;20.00;14.70;99.90;;;;;;5010298;28;12432;-48
2022/03/12 07:02:37;;;;;;;;;22.00;22.00;14.60;99.90;;;;;;5006860;28;11634;-48
2022/03/12 07:05:08;;;;;;;;;24.00;24.00;14.50;99.90;;;;;;5010798;28;11562;-48
2022/03/12 07:07:39;;;;;;;;;17.00;17.00;14.50;99.90;;;;;;5009986;28;11232;-49
2022/03/12 07:10:10;;;;;;;;;9.25;9.25;14.50;99.90;;;;;;5007064;28;11562;-46
2022/03/12 07:12:48;;;;;;;;;10.25;9.00;14.40;99.90;;;;;;5009964;28;11500;-46
2022/03/12 07:15:19;;;;;;;;;7.00;7.00;14.40;99.90;;;;;;5009373;28;11592;-46
2022/03/12 07:17:51;;;;;;;;;19.00;19.00;14.40;99.90;;;;;;5010309;28;12235;-48
2022/03/12 07:20:21;;;;;;;;;28.75;25.75;14.30;99.90;;;;;;5011403;28;11604;-46
2022/03/12 07:22:52;;;;;;;;;20.00;18.75;14.30;99.90;;;;;;5013272;28;11565;-50
2022/03/12 07:25:25;;;;;;;;;17.50;16.75;14.20;99.90;;;;;;5008620;28;11745;-44
2022/03/12 07:27:56;;;;;;;;;14.00;13.50;14.10;99.90;;;;;;5008234;28;11599;-46
2022/03/12 07:30:27;;;;;;;;;13.00;13.00;14.10;99.90;;;;;;5010242;28;11529;-47
2022/03/12 07:33:00;;;;;;;;;14.00;12.25;14.10;99.90;;;;;;5002748;28;11585;-46
2022/03/12 07:35:31;;;;;;;;;10.00;8.25;14.10;99.90;;;;;;5006603;28;11611;-47
2022/03/12 07:38:04;;;;;;;;;6.00;6.00;14.10;99.90;;;;;;5012617;28;11689;-48
2022/03/12 07:40:34;;;;;;;;;6.75;6.75;14.10;99.90;;;;;;5013992;28;11594;-49
2022/03/12 07:43:05;;;;;;;;;8.00;8.00;14.00;99.90;;;;;;5014999;28;11533;-46
2022/03/12 07:45:36;;;;;;;;;7.50;7.50;13.90;99.90;;;;;;5013526;28;12419;-48
2022/03/12 07:48:07;;;;;;;;;9.75;8.75;13.90;99.90;;;;;;5015152;28;11536;-45
2022/03/12 07:51:00;;;;;;;;;10.00;8.75;13.80;99.90;;;;;;5015999;28;11538;-49
2022/03/12 07:53:31;;;;;;;;;7.25;7.25;13.70;99.90;;;;;;5016201;28;11560;-45
2022/03/12 07:56:02;;;;;;;;;10.25;9.25;13.70;99.90;;;;;;5010896;28;12569;-47
2022/03/12 07:58:33;;;;;;;;;7.00;7.00;13.70;99.90;;;;;;5013701;28;11513;-50
2022/03/12 08:01:05;;;;;;;;;4.50;4.00;13.70;99.90;;;;;;5013034;28;11558;-48
2022/03/12 08:03:36;;;;;;;;;7.50;7.50;13.70;99.90;;;;;;5011879;28;11693;-46
2022/03/12 08:06:08;;;;;;;;;7.00;7.00;13.70;99.90;;;;;;5010221;28;11522;-47
2022/03/12 08:08:41;;;;;;;;;8.50;8.50;13.60;99.90;;;;;;5011801;28;11737;-45
2022/03/12 08:11:25;;;;;;;;;7.25;7.00;13.50;99.90;;;;;;5017113;28;11527;-48
2022/03/12 08:14:06;;;;;;;;;4.50;4.50;13.50;99.90;;;;;;5013589;28;11982;-46
2022/03/12 08:16:37;;;;;;;;;4.00;4.00;13.40;99.90;;;;;;5012757;28;11585;-46
2022/03/12 08:19:09;;;;;;;;;5.00;5.00;13.40;99.90;;;;;;5013462;28;11521;-46
2022/03/12 08:21:41;;;;;;;;;4.00;4.00;13.40;99.90;;;;;;5014182;28;11556;-48
2022/03/12 08:24:15;;;;;;;;;5.00;5.00;13.40;99.90;;;;;;5015006;28;11518;-45
2022/03/12 08:26:47;;;;;;;;;8.25;8.25;13.30;99.90;;;;;;5008280;28;11568;-49
2022/03/12 08:29:21;;;;;;;;;14.25;12.75;13.30;99.90;;;;;;5013984;28;11522;-47
2022/03/12 08:31:51;;;;;;;;;13.00;13.00;13.20;99.90;;;;;;5003780;28;11573;-47
2022/03/12 08:34:22;;;;;;;;;15.25;14.00;13.20;99.90;;;;;;5007593;28;11609;-47
2022/03/12 08:36:53;;;;;;;;;17.00;15.75;13.20;99.90;;;;;;5010529;28;11686;-45
2022/03/12 08:39:23;;;;;;;;;18.00;15.75;13.20;99.90;;;;;;5012467;28;11681;-46
2022/03/12 08:41:54;;;;;;;;;19.00;19.00;13.10;99.90;;;;;;5009812;28;12260;-46
2022/03/12 08:44:24;;;;;;;;;26.00;25.00;13.10;99.90;;;;;;5009832;28;11727;-47
2022/03/12 08:46:55;;;;;;;;;17.25;17.25;13.00;99.90;;;;;;5010953;28;11607;-49
2022/03/12 08:49:28;;;;;;;;;13.75;13.75;12.90;99.90;;;;;;5012662;28;11553;-47
2022/03/12 08:52:00;;;;;;;;;6.25;6.25;12.90;99.90;;;;;;5014682;28;11529;-47
2022/03/12 08:54:30;;;;;;;;;10.75;8.75;12.90;99.90;;;;;;5012029;28;11587;-47
2022/03/12 08:57:01;;;;;;;;;11.75;11.75;12.90;99.90;;;;;;5011765;28;11522;-46
2022/03/12 08:59:31;;;;;;;;;16.50;16.50;12.90;99.90;;;;;;5007915;28;11603;-44
2022/03/12 09:02:01;;;;;;;;;6.25;6.25;12.80;99.90;;;;;;5009451;28;11587;-46
2022/03/12 09:04:32;;;;;;;;;20.75;20.75;12.80;99.90;;;;;;5012920;28;11526;-48
2022/03/12 09:07:05;;;;;;;;;14.75;14.75;12.70;99.90;;;;;;5007101;28;11625;-46
2022/03/12 09:09:35;;;;;;;;;13.00;13.00;12.70;99.90;;;;;;5012671;28;11567;-47
2022/03/12 09:12:08;;;;;;;;;13.75;13.75;12.70;99.90;;;;;;5009993;28;11567;-47
2022/03/12 09:14:38;;;;;;;;;17.25;16.00;12.70;99.90;;;;;;5011925;28;11604;-45
2022/03/12 09:17:09;;;;;;;;;16.00;16.00;12.70;99.90;;;;;;5008261;28;11559;-46
2022/03/12 09:19:41;;;;;;;;;14.00;14.00;12.60;99.90;;;;;;5023948;28;11597;-45
2022/03/12 09:22:12;;;;;;;;;12.75;12.75;12.60;99.90;;;;;;5006169;28;12304;-47
2022/03/12 09:24:42;;;;;;;;;7.75;7.75;12.60;99.90;;;;;;5004157;28;11535;-45
2022/03/12 09:27:13;;;;;;;;;5.25;5.25;12.50;99.90;;;;;;5008280;28;11565;-45
2022/03/12 09:29:44;;;;;;;;;5.00;5.00;12.50;99.90;;;;;;5007640;28;11518;-44
2022/03/12 09:32:16;;;;;;;;;5.00;5.00;12.50;99.90;;;;;;5004590;28;11514;-45
2022/03/12 09:34:46;;;;;;;;;3.25;3.25;12.50;99.90;;;;;;5010351;28;12671;-46
2022/03/12 09:37:20;;;;;;;;;5.50;5.50;12.40;99.90;;;;;;5006633;28;11530;-48
2022/03/12 09:39:52;;;;;;;;;6.00;6.00;12.40;99.90;;;;;;5014732;28;12262;-45
2022/03/12 09:42:26;;;;;;;;;13.75;11.75;12.40;99.90;;;;;;5009420;28;11534;-49
2022/03/12 09:44:59;;;;;;;;;14.75;14.75;12.40;99.90;;;;;;5006648;28;11699;-46
2022/03/12 09:47:30;;;;;;;;;14.75;14.75;12.30;99.90;;;;;;5009198;28;11549;-46
2022/03/12 09:50:01;;;;;;;;;13.75;13.75;12.30;99.90;;;;;;5008122;28;12068;-46
2022/03/12 09:52:32;;;;;;;;;13.50;13.50;12.30;99.90;;;;;;5012283;28;11554;-45
2022/03/12 09:55:04;;;;;;;;;13.25;13.25;12.30;99.90;;;;;;5006394;28;11667;-47
2022/03/12 09:57:35;;;;;;;;;13.50;13.50;12.20;99.90;;;;;;5007098;28;11530;-47
2022/03/12 10:00:09;;;;;;;;;11.50;11.50;12.20;99.90;;;;;;5012706;28;11579;-48
2022/03/12 10:02:40;;;;;;;;;10.00;10.00;12.20;99.90;;;;;;5014145;28;11524;-48
2022/03/12 10:05:13;;;;;;;;;10.50;10.50;12.20;99.90;;;;;;5012927;28;12199;-47
2022/03/12 10:07:44;;;;;;;;;8.25;8.25;12.20;99.90;;;;;;5013080;28;11535;-45
2022/03/12 10:10:17;;;;;;;;;6.25;6.25;12.20;99.90;;;;;;5009995;28;11640;-48
2022/03/12 10:12:49;;;;;;;;;6.25;6.25;12.10;99.90;;;;;;5012916;28;11593;-47
2022/03/12 10:15:21;;;;;;;;;3.75;3.75;12.10;99.90;;;;;;5011121;28;11582;-47
2022/03/12 10:17:52;;;;;;;;;4.50;4.50;12.00;99.90;;;;;;5012737;28;11608;-45
2022/03/12 10:20:25;;;;;;;;;5.00;3.75;12.00;99.90;;;;;;5012674;28;12232;-48
2022/03/12 10:22:57;;;;;;;;;6.00;5.00;11.90;99.90;;;;;;5013717;28;11538;-47
2022/03/12 10:25:27;;;;;;;;;4.75;4.75;11.80;99.90;;;;;;5012864;28;11546;-46
2022/03/12 10:27:57;;;;;;;;;7.00;5.25;11.70;99.90;;;;;;5012422;28;11584;-47
2022/03/12 10:30:28;;;;;;;;;5.75;5.75;11.80;99.90;;;;;;5011449;28;11515;-47
2022/03/12 10:32:59;;;;;;;;;9.75;9.75;11.80;99.90;;;;;;5008320;28;11531;-46
2022/03/12 10:35:38;;;;;;;;;10.00;10.00;11.70;99.90;;;;;;5007970;28;11698;-45
2022/03/12 10:38:11;;;;;;;;;10.75;10.75;11.70;99.90;;;;;;5013884;28;11527;-46
2022/03/12 10:40:44;;;;;;;;;8.75;8.75;11.70;99.90;;;;;;5008875;28;11510;-47
2022/03/12 10:43:15;;;;;;;;;8.50;8.25;11.60;99.90;;;;;;5027295;28;11540;-45
2022/03/12 10:45:52;;;;;;;;;11.75;10.25;11.60;99.90;;;;;;5011391;28;12295;-46
2022/03/12 10:48:24;;;;;;;;;10.25;10.00;11.50;99.90;;;;;;5006125;28;11557;-47
2022/03/12 10:50:57;;;;;;;;;6.75;6.75;11.50;99.90;;;;;;5002039;28;12064;-45
2022/03/12 10:53:27;;;;;;;;;3.75;3.75;11.50;99.90;;;;;;5003297;28;11512;-45
2022/03/12 10:55:58;;;;;;;;;3.75;3.75;11.50;99.90;;;;;;5007521;28;11506;-46
2022/03/12 10:58:28;;;;;;;;;6.00;4.50;11.50;99.90;;;;;;5013238;28;11512;-46
2022/03/12 11:01:02;;;;;;;;;7.50;6.00;11.50;99.90;;;;;;5004396;28;12812;-45
2022/03/12 11:03:35;;;;;;;;;7.25;7.25;11.50;99.90;;;;;;5014517;28;11538;-45
2022/03/12 11:06:07;;;;;;;;;11.25;10.00;11.40;99.90;;;;;;5008569;28;11516;-49
2022/03/12 11:08:38;;;;;;;;;5.50;5.50;11.30;99.90;;;;;;5006509;28;11527;-46
2022/03/12 11:11:13;;;;;;;;;5.00;5.00;11.20;99.90;;;;;;5012787;28;11545;-47
2022/03/12 11:13:51;;;;;;;;;5.75;5.00;11.20;99.90;;;;;;5013165;28;11559;-49
2022/03/12 11:16:33;;;;;;;;;4.00;4.00;11.10;99.90;;;;;;5012985;28;11530;-49
2022/03/12 11:19:11;;;;;;;;;4.50;4.50;11.10;99.90;;;;;;5018172;28;11521;-45
2022/03/12 11:21:47;;;;;;;;;3.00;3.00;11.20;99.90;;;;;;5015621;28;11495;-46
2022/03/12 11:24:27;;;;;;;;;2.00;2.00;11.20;99.90;;;;;;5014137;28;11655;-50
2022/03/12 11:27:03;;;;;;;;;5.00;5.00;11.20;99.90;;;;;;5023217;28;11530;-48
2022/03/12 11:29:34;;;;;;;;;7.25;6.00;11.20;99.90;;;;;;5010196;28;11487;-46
2022/03/12 11:32:09;;;;;;;;;6.00;6.00;11.10;99.90;;;;;;5011886;28;11575;-46
2022/03/12 11:34:42;;;;;;;;;9.25;9.25;11.10;99.90;;;;;;5012117;28;12218;-46
2022/03/12 11:37:20;;;;;;;;;5.75;5.75;11.10;99.90;;;;;;5017115;28;11540;-47
2022/03/12 11:39:51;;;;;;;;;4.25;4.25;11.10;99.90;;;;;;5016546;28;11517;-47
2022/03/12 11:42:26;;;;;;;;;5.00;5.00;11.00;99.90;;;;;;5013932;28;11598;-47
2022/03/12 11:44:57;;;;;;;;;5.50;5.50;11.00;99.90;;;;;;5015698;28;11514;-49
2022/03/12 11:47:38;;;;;;;;;9.75;6.00;11.00;99.90;;;;;;5011142;28;11575;-48
2022/03/12 11:50:19;;;;;;;;;10.00;6.50;10.90;99.90;;;;;;5009057;28;11557;-48
2022/03/12 11:52:54;;;;;;;;;10.25;10.25;11.00;99.90;;;;;;5008189;28;11759;-46
2022/03/12 11:55:32;;;;;;;;;10.50;10.50;10.90;99.90;;;;;;5013373;28;12015;-48
2022/03/12 11:58:03;;;;;;;;;5.00;4.50;10.90;99.90;;;;;;5028018;28;11566;-44
2022/03/12 12:00:34;;;;;;;;;10.75;10.75;10.80;99.90;;;;;;5008087;28;12369;-46
2022/03/12 12:03:05;;;;;;;;;12.00;10.50;10.80;99.90;;;;;;5009007;28;11580;-46
2022/03/12 12:05:41;;;;;;;;;6.00;6.00;10.80;99.90;;;;;;5011353;28;11518;-45
2022/03/12 12:08:15;;;;;;;;;4.25;4.25;10.80;99.90;;;;;;5010315;28;12469;-48
2022/03/12 12:10:46;;;;;;;;;4.00;4.00;10.70;99.90;;;;;;5013935;28;11664;-46
2022/03/12 12:13:18;;;;;;;;;4.00;4.00;10.70;99.90;;;;;;5013242;28;11934;-47
2022/03/12 12:15:52;;;;;;;;;4.25;4.25;10.70;99.90;;;;;;5024691;28;11639;-47
2022/03/12 12:18:23;;;;;;;;;4.00;4.00;10.60;99.90;;;;;;5011784;28;11560;-46
2022/03/12 12:20:53;;;;;;;;;5.00;5.00;10.60;99.90;;;;;;5014383;28;11520;-47
2022/03/12 12:23:26;;;;;;;;;2.25;2.25;10.50;99.90;;;;;;5012957;28;11664;-47
2022/03/12 12:26:14;;;;;;;;;7.00;7.00;10.40;99.90;;;;;;5011560;28;11554;-48
2022/03/12 12:28:53;;;;;;;;;11.00;9.50;10.30;99.90;;;;;;5007706;28;11542;-46
2022/03/12 12:31:25;;;;;;;;;17.25;15.00;10.30;99.90;;;;;;5009873;28;11683;-45
2022/03/12 12:34:00;;;;;;;;;17.00;17.00;10.30;99.90;;;;;;5010363;28;11547;-45
2022/03/12 12:36:31;;;;;;;;;17.00;16.50;10.40;99.90;;;;;;5016112;28;11556;-44
2022/03/12 12:39:10;;;;;;;;;23.67;21.00;10.40;99.90;;;;;;5015576;28;12291;-47
2022/03/12 12:42:01;;;;;;;;;28.00;26.67;10.30;99.90;;;;;;5015573;28;11571;-47
2022/03/12 12:44:50;;;;;;;;;33.67;32.33;10.40;99.90;;;;;;5014213;28;11627;-46
2022/03/12 12:47:22;;;;;;;;;19.75;17.75;10.30;99.90;;;;;;5005180;28;11606;-45
2022/03/12 12:49:55;;;;;;;;;20.00;20.00;10.30;99.90;;;;;;5010400;28;11529;-45
2022/03/12 12:52:32;;;;;;;;;19.50;19.25;10.30;99.90;;;;;;5011564;28;11724;-48
2022/03/12 12:55:07;;;;;;;;;15.75;13.00;10.30;99.90;;;;;;5027720;28;12328;-47
2022/03/12 12:57:44;;;;;;;;;16.00;16.00;10.20;99.90;;;;;;5014800;28;11577;-45
2022/03/12 13:00:20;;;;;;;;;27.00;27.00;10.20;99.90;;;;;;5010102;28;11602;-46
2022/03/12 13:02:52;;;;;;;;;30.67;29.00;10.20;99.90;;;;;;5012677;28;8875;-49
2022/03/12 13:05:45;;;;;;;;;24.67;24.33;10.10;99.90;;;;;;5006181;28;11651;-48
2022/03/12 13:08:17;;;;;;;;;11.75;10.25;10.00;99.90;;;;;;5011076;28;11755;-47
2022/03/12 13:10:52;;;;;;;;;7.75;7.75;9.90;99.90;;;;;;5009370;28;11500;-47